createdAt,value
2017-07-21T00:00:54.364Z,61.51
2017-07-21T00:03:21.986Z,61.41
2017-07-21T00:05:49.679Z,61.67
2017-07-21T00:08:17.317Z,61.63
2017-07-21T00:10:44.911Z,61.85
2017-07-21T00:13:12.538Z,62.46
2017-07-21T00:15:40.222Z,61.92
2017-07-21T00:18:07.859Z,62.05
2017-07-21T00:20:35.457Z,62.03
2017-07-21T00:23:03.098Z,62.51
2017-07-21T00:25:30.687Z,62.41
2017-07-21T00:27:58.310Z,62.01
2017-07-21T00:30:25.919Z,62.27
2017-07-21T00:32:53.570Z,62.19
2017-07-21T00:35:21.174Z,62.35
2017-07-21T00:37:48.826Z,62.56
2017-07-21T00:40:16.406Z,62.77
2017-07-21T00:42:44.002Z,63.31
2017-07-21T00:45:11.659Z,63.46
2017-07-21T00:47:39.267Z,63.47
2017-07-21T00:50:06.910Z,63.42
2017-07-21T00:52:34.506Z,63.32
2017-07-21T00:55:02.173Z,63.37
2017-07-21T00:57:29.813Z,63.55
2017-07-21T00:59:57.461Z,63.79
2017-07-21T01:02:25.079Z,63.64
2017-07-21T01:04:52.682Z,64.20
2017-07-21T01:07:20.314Z,62.95
2017-07-21T01:09:47.909Z,62.94
2017-07-21T01:12:15.538Z,63.31
2017-07-21T01:14:43.131Z,63.58
2017-07-21T01:17:10.754Z,62.87
2017-07-21T01:19:38.348Z,62.51
2017-07-21T01:22:06.092Z,62.78
2017-07-21T01:24:33.685Z,63.19
2017-07-21T01:27:01.332Z,63.70
2017-07-21T01:29:28.926Z,63.68
2017-07-21T01:31:56.586Z,62.58
2017-07-21T01:34:24.209Z,61.59
2017-07-21T01:36:51.823Z,62.37
2017-07-21T01:39:19.422Z,62.49
2017-07-21T01:41:47.051Z,61.53
2017-07-21T01:44:14.651Z,61.54
2017-07-21T01:46:42.303Z,61.72
2017-07-21T01:49:09.926Z,61.87
2017-07-21T01:51:37.514Z,60.96
2017-07-21T01:54:05.131Z,60.33
2017-07-21T01:56:32.772Z,61.76
2017-07-21T01:59:00.388Z,61.63
2017-07-21T02:01:27.974Z,60.39
2017-07-21T02:03:55.610Z,60.48
2017-07-21T02:06:23.210Z,61.27
2017-07-21T02:08:50.834Z,60.39
2017-07-21T02:11:18.423Z,61.60
2017-07-21T02:13:46.042Z,61.83
2017-07-21T02:16:13.638Z,62.23
2017-07-21T02:18:41.290Z,63.01
2017-07-21T02:21:08.890Z,63.36
2017-07-21T02:23:36.527Z,64.34
2017-07-21T02:26:04.114Z,65.13
2017-07-21T02:28:31.754Z,66.71
2017-07-21T02:30:59.399Z,67.45
2017-07-21T02:33:27.034Z,68.00
2017-07-21T02:35:54.757Z,68.10
2017-07-21T02:38:22.398Z,69.01
2017-07-21T02:40:50.002Z,69.62
2017-07-21T02:43:17.595Z,69.89
2017-07-21T02:45:45.266Z,70.17
2017-07-21T02:48:12.860Z,70.35
2017-07-21T02:50:40.527Z,70.47
2017-07-21T02:53:08.127Z,70.25
2017-07-21T02:55:35.746Z,69.53
2017-07-21T02:58:03.340Z,69.37
2017-07-21T03:00:31.085Z,69.77
2017-07-21T03:02:58.688Z,70.54
2017-07-21T03:05:26.327Z,71.40
2017-07-21T03:07:53.936Z,72.32
2017-07-21T03:10:21.558Z,72.63
2017-07-21T03:12:49.163Z,73.05
2017-07-21T03:15:16.812Z,73.28
2017-07-21T03:17:44.413Z,73.32
2017-07-21T03:20:12.011Z,72.92
2017-07-21T03:23:06.299Z,72.86
2017-07-21T03:25:33.920Z,73.34
2017-07-21T03:28:01.597Z,74.30
2017-07-21T03:30:29.378Z,73.98
2017-07-21T03:32:56.968Z,73.76
2017-07-21T03:35:24.614Z,73.59
2017-07-21T03:37:52.218Z,73.24
2017-07-21T03:40:19.851Z,72.37
2017-07-21T03:42:47.449Z,72.26
2017-07-21T03:45:15.073Z,72.68
2017-07-21T03:47:42.698Z,72.81
2017-07-21T03:50:10.347Z,73.18
2017-07-21T03:52:37.942Z,73.78
2017-07-21T03:55:05.543Z,73.82
2017-07-21T03:57:33.159Z,74.12
2017-07-21T04:00:00.815Z,73.94
2017-07-21T04:02:28.451Z,73.80
2017-07-21T04:04:56.046Z,74.01
2017-07-21T04:07:23.702Z,73.67
2017-07-21T04:09:51.307Z,74.14
2017-07-21T04:12:18.964Z,73.79
2017-07-21T04:14:46.562Z,74.00
2017-07-21T04:17:14.234Z,73.97
2017-07-21T04:19:41.843Z,75.02
2017-07-21T04:22:09.563Z,74.83
2017-07-21T04:24:37.181Z,74.57
2017-07-21T04:27:04.793Z,74.00
2017-07-21T04:29:32.439Z,74.20
2017-07-21T04:32:00.075Z,74.59
2017-07-21T04:34:27.734Z,74.30
2017-07-21T04:36:55.355Z,74.72
2017-07-21T04:39:22.995Z,74.71
2017-07-21T04:41:50.640Z,74.37
2017-07-21T04:44:18.254Z,74.03
2017-07-21T04:46:45.866Z,74.13
2017-07-21T04:49:13.546Z,74.03
2017-07-21T04:51:41.131Z,73.22
2017-07-21T04:54:08.797Z,73.25
2017-07-21T04:56:36.386Z,73.00
2017-07-21T04:59:04.034Z,73.19
2017-07-21T05:01:31.626Z,72.90
2017-07-21T05:03:59.231Z,73.14
2017-07-21T05:06:26.866Z,73.13
2017-07-21T05:08:54.462Z,72.90
2017-07-21T05:11:22.094Z,72.85
2017-07-21T05:13:49.751Z,73.18
2017-07-21T05:16:17.375Z,72.99
2017-07-21T05:18:44.978Z,71.84
2017-07-21T05:21:12.606Z,71.63
2017-07-21T05:23:40.205Z,71.40
2017-07-21T05:26:07.822Z,69.95
2017-07-21T05:28:35.454Z,69.47
2017-07-21T05:31:03.088Z,69.44
2017-07-21T05:33:30.714Z,69.33
2017-07-21T05:35:58.339Z,69.58
2017-07-21T05:38:25.974Z,69.97
2017-07-21T05:40:53.599Z,69.69
2017-07-21T05:43:21.260Z,69.07
2017-07-21T05:45:48.874Z,68.49
2017-07-21T05:48:16.478Z,68.33
2017-07-21T05:50:44.109Z,68.21
2017-07-21T05:53:11.711Z,68.16
2017-07-21T05:55:39.342Z,67.36
2017-07-21T05:58:07.010Z,67.58
2017-07-21T06:00:34.654Z,67.62
2017-07-21T06:03:02.270Z,66.83
2017-07-21T06:05:29.892Z,66.98
2017-07-21T06:07:57.494Z,66.28
2017-07-21T06:10:25.208Z,66.49
2017-07-21T06:12:52.826Z,65.87
2017-07-21T06:15:20.445Z,66.00
2017-07-21T06:17:48.051Z,65.28
2017-07-21T06:20:15.671Z,64.43
2017-07-21T06:22:43.259Z,64.68
2017-07-21T06:25:10.887Z,63.79
2017-07-21T06:27:38.474Z,63.78
2017-07-21T06:30:06.100Z,62.61
2017-07-21T06:32:33.727Z,62.46
2017-07-21T06:35:01.444Z,63.04
2017-07-21T06:37:29.127Z,62.95
2017-07-21T06:39:56.786Z,62.42
2017-07-21T06:42:24.386Z,63.46
2017-07-21T06:44:52.041Z,61.76
2017-07-21T06:47:19.631Z,61.82
2017-07-21T06:49:47.454Z,61.53
2017-07-21T06:52:15.063Z,58.58
2017-07-21T06:54:42.702Z,59.58
2017-07-21T06:57:10.354Z,60.36
2017-07-21T06:59:38.048Z,58.18
2017-07-21T07:02:06.819Z,57.04
2017-07-21T07:04:34.450Z,58.67
2017-07-21T07:07:02.116Z,58.48
2017-07-21T07:09:29.756Z,58.03
2017-07-21T07:11:57.365Z,58.32
2017-07-21T07:14:25.644Z,58.37
2017-07-21T07:16:53.603Z,55.31
2017-07-21T07:19:21.300Z,56.65
2017-07-21T07:21:48.967Z,57.30
2017-07-21T07:24:16.587Z,56.56
2017-07-21T07:26:44.199Z,55.95
2017-07-21T07:29:11.897Z,53.20
2017-07-21T07:31:39.486Z,52.01
2017-07-21T07:34:07.131Z,51.58
2017-07-21T07:36:34.738Z,49.63
2017-07-21T07:39:02.394Z,48.23
2017-07-21T07:41:30.018Z,47.56
2017-07-21T07:43:57.627Z,49.11
2017-07-21T07:46:25.252Z,49.07
2017-07-21T07:48:52.885Z,48.48
2017-07-21T07:51:20.527Z,49.83
2017-07-21T07:53:48.160Z,50.34
2017-07-21T07:56:15.877Z,50.19
2017-07-21T07:58:43.486Z,50.98
2017-07-21T08:01:11.131Z,49.32
2017-07-21T08:03:38.741Z,49.58
2017-07-21T08:06:06.498Z,49.30
2017-07-21T08:08:34.094Z,49.06
2017-07-21T08:11:01.923Z,47.94
2017-07-21T08:13:29.538Z,48.11
2017-07-21T08:15:57.151Z,47.43
2017-07-21T08:18:24.740Z,47.38
2017-07-21T08:20:52.387Z,47.97
2017-07-21T08:23:19.986Z,49.37
2017-07-21T08:25:47.634Z,49.02
2017-07-21T08:28:15.250Z,49.95
2017-07-21T08:30:42.907Z,49.39
2017-07-21T08:33:10.504Z,49.95
2017-07-21T08:35:38.143Z,50.35
2017-07-21T08:38:05.746Z,50.96
2017-07-21T08:40:33.380Z,49.84
2017-07-21T08:43:00.966Z,49.24
2017-07-21T08:45:28.590Z,49.14
2017-07-21T08:47:56.214Z,49.20
2017-07-21T08:50:23.840Z,49.64
2017-07-21T08:52:51.437Z,49.91
2017-07-21T08:55:19.122Z,50.50
2017-07-21T08:57:46.768Z,49.64
2017-07-21T09:00:14.419Z,49.40
2017-07-21T09:02:42.014Z,49.40
2017-07-21T09:05:09.703Z,49.82
2017-07-21T09:07:38.074Z,49.26
2017-07-21T09:10:05.728Z,49.02
2017-07-21T09:12:33.430Z,49.71
2017-07-21T09:15:01.021Z,49.46
2017-07-21T09:17:28.678Z,49.85
2017-07-21T09:19:56.322Z,49.47
2017-07-21T09:22:23.965Z,50.26
2017-07-21T09:24:51.567Z,49.78
2017-07-21T09:27:19.198Z,49.67
2017-07-21T09:29:46.822Z,49.45
2017-07-21T09:32:14.491Z,50.54
2017-07-21T09:34:42.096Z,49.36
2017-07-21T09:37:09.742Z,50.50
2017-07-21T09:39:37.435Z,49.89
2017-07-21T09:42:05.095Z,50.17
2017-07-21T09:44:32.732Z,50.08
2017-07-21T09:47:00.367Z,49.86
2017-07-21T09:49:27.958Z,50.04
2017-07-21T09:51:55.598Z,49.63
2017-07-21T09:54:23.198Z,48.31
2017-07-21T09:56:50.848Z,49.31
2017-07-21T09:59:18.435Z,48.71
2017-07-21T10:01:46.111Z,48.05
2017-07-21T10:04:13.709Z,46.54
2017-07-21T10:06:41.308Z,48.09
2017-07-21T10:09:08.935Z,47.76
2017-07-21T10:11:36.551Z,46.43
2017-07-21T10:14:04.981Z,46.41
2017-07-21T10:16:32.583Z,47.17
2017-07-21T10:19:00.260Z,46.13
2017-07-21T10:21:27.856Z,45.83
2017-07-21T10:23:55.479Z,46.15
2017-07-21T10:26:23.086Z,46.56
2017-07-21T10:28:50.734Z,46.60
2017-07-21T10:31:18.334Z,45.46
2017-07-21T10:33:45.993Z,46.01
2017-07-21T10:36:13.621Z,45.08
2017-07-21T10:38:41.242Z,44.89
2017-07-21T10:41:08.836Z,45.19
2017-07-21T10:43:36.486Z,44.29
2017-07-21T10:46:04.073Z,45.13
2017-07-21T10:48:31.706Z,45.06
2017-07-21T10:50:59.311Z,43.18
2017-07-21T10:53:26.932Z,43.89
2017-07-21T10:55:54.549Z,42.56
2017-07-21T10:58:22.180Z,44.64
2017-07-21T11:00:49.778Z,42.27
2017-07-21T11:03:17.454Z,42.43
2017-07-21T11:05:45.042Z,41.83
2017-07-21T11:08:12.678Z,41.46
2017-07-21T11:10:40.283Z,40.38
2017-07-21T11:13:07.940Z,40.14
2017-07-21T11:15:35.528Z,39.67
2017-07-21T11:18:03.244Z,40.87
2017-07-21T11:20:30.890Z,41.47
2017-07-21T11:22:58.526Z,39.83
2017-07-21T11:25:26.166Z,41.29
2017-07-21T11:27:53.782Z,40.50
2017-07-21T11:30:21.376Z,39.55
2017-07-21T11:32:49.026Z,39.17
2017-07-21T11:35:16.767Z,40.77
2017-07-21T11:37:44.386Z,40.22
2017-07-21T11:40:11.967Z,40.48
2017-07-21T11:42:39.590Z,39.43
2017-07-21T11:45:07.287Z,38.43
2017-07-21T11:47:34.914Z,36.99
2017-07-21T11:50:02.514Z,37.99
2017-07-21T11:52:30.162Z,38.01
2017-07-21T11:54:57.834Z,36.96
2017-07-21T11:57:25.465Z,36.38
2017-07-21T11:59:53.085Z,37.14
2017-07-21T12:02:20.725Z,37.86
2017-07-21T12:04:48.327Z,37.93
2017-07-21T12:07:16.047Z,38.76
2017-07-21T12:09:43.673Z,37.82
2017-07-21T12:12:11.265Z,38.88
2017-07-21T12:14:38.901Z,37.64
2017-07-21T12:17:06.498Z,39.21
2017-07-21T12:19:34.145Z,37.93
2017-07-21T12:22:01.754Z,37.26
2017-07-21T12:24:29.378Z,37.28
2017-07-21T12:26:56.990Z,37.02
2017-07-21T12:29:24.618Z,37.13
2017-07-21T12:31:52.213Z,36.23
2017-07-21T12:34:19.847Z,35.89
2017-07-21T12:36:47.443Z,35.15
2017-07-21T12:39:15.084Z,37.04
2017-07-21T12:41:42.681Z,35.99
2017-07-21T12:44:10.351Z,36.20
2017-07-21T12:46:38.290Z,35.25
2017-07-21T12:49:05.963Z,34.99
2017-07-21T12:51:33.554Z,35.67
2017-07-21T12:54:01.206Z,36.33
2017-07-21T12:56:28.796Z,36.42
2017-07-21T12:58:56.414Z,34.96
2017-07-21T13:01:24.011Z,35.34
2017-07-21T13:03:51.673Z,35.52
2017-07-21T13:06:19.275Z,35.37
2017-07-21T13:08:46.903Z,36.18
2017-07-21T13:11:14.518Z,35.36
2017-07-21T13:13:42.147Z,34.32
2017-07-21T13:16:09.734Z,34.69
2017-07-21T13:18:37.385Z,35.46
2017-07-21T13:21:04.999Z,35.25
2017-07-21T13:23:32.626Z,34.68
2017-07-21T13:26:00.228Z,35.20
2017-07-21T13:28:27.873Z,34.29
2017-07-21T13:30:55.467Z,34.20
2017-07-21T13:33:23.140Z,33.71
2017-07-21T13:35:50.725Z,33.97
2017-07-21T13:38:18.352Z,34.43
2017-07-21T13:40:46.013Z,35.17
2017-07-21T13:43:13.663Z,34.03
2017-07-21T13:45:41.270Z,33.30
2017-07-21T13:48:08.914Z,33.32
2017-07-21T13:50:36.527Z,33.83
2017-07-21T13:53:04.168Z,33.92
2017-07-21T13:55:31.790Z,32.92
2017-07-21T13:57:59.399Z,33.85
2017-07-21T14:00:27.046Z,34.04
2017-07-21T14:02:54.639Z,33.70
2017-07-21T14:05:22.282Z,33.17
2017-07-21T14:07:49.878Z,33.08
2017-07-21T14:10:17.534Z,33.18
2017-07-21T14:12:45.132Z,32.05
2017-07-21T14:15:12.760Z,32.93
2017-07-21T14:17:40.363Z,33.50
2017-07-21T14:20:07.992Z,32.42
2017-07-21T14:22:35.662Z,31.84
2017-07-21T14:25:03.303Z,31.23
2017-07-21T14:27:30.896Z,32.27
2017-07-21T14:29:58.523Z,30.58
2017-07-21T14:32:26.143Z,29.75
2017-07-21T14:34:53.766Z,29.95
2017-07-21T14:37:21.416Z,30.05
2017-07-21T14:39:49.053Z,29.38
2017-07-21T14:42:16.645Z,30.82
2017-07-21T14:44:44.281Z,31.70
2017-07-21T14:47:11.884Z,29.93
2017-07-21T14:49:39.521Z,30.07
2017-07-21T14:52:07.199Z,30.12
2017-07-21T14:54:34.827Z,30.27
2017-07-21T14:57:02.424Z,31.48
2017-07-21T14:59:30.066Z,31.81
2017-07-21T15:01:58.439Z,30.20
2017-07-21T15:04:26.073Z,30.82
2017-07-21T15:06:53.676Z,30.31
2017-07-21T15:09:21.315Z,29.96
2017-07-21T15:11:48.970Z,30.04
2017-07-21T15:14:16.611Z,28.58
2017-07-21T15:16:44.234Z,29.75
2017-07-21T15:19:11.858Z,29.55
2017-07-21T15:21:39.468Z,29.19
2017-07-21T15:24:07.119Z,30.25
2017-07-21T15:26:34.747Z,28.70
2017-07-21T15:29:02.349Z,30.02
2017-07-21T15:31:29.991Z,31.30
2017-07-21T15:33:57.592Z,30.51
2017-07-21T15:36:25.231Z,30.69
2017-07-21T15:38:52.849Z,30.87
2017-07-21T15:41:20.487Z,29.45
2017-07-21T15:43:48.099Z,29.24
2017-07-21T15:46:15.771Z,28.59
2017-07-21T15:48:43.381Z,29.22
2017-07-21T15:51:11.010Z,29.01
2017-07-21T15:53:38.638Z,29.09
2017-07-21T15:56:06.266Z,29.27
2017-07-21T15:58:33.875Z,30.59
2017-07-21T16:01:01.516Z,29.48
2017-07-21T16:03:29.120Z,29.16
2017-07-21T16:05:56.769Z,28.70
2017-07-21T16:08:24.382Z,28.71
2017-07-21T16:10:52.028Z,29.79
2017-07-21T16:13:19.674Z,29.80
2017-07-21T16:15:47.324Z,29.33
2017-07-21T16:18:15.024Z,28.52
2017-07-21T16:20:42.660Z,29.51
2017-07-21T16:23:10.274Z,29.84
2017-07-21T16:25:37.946Z,29.93
2017-07-21T16:28:05.545Z,30.69
2017-07-21T16:30:33.177Z,29.59
2017-07-21T16:33:00.787Z,29.75
2017-07-21T16:35:28.551Z,29.09
2017-07-21T16:37:56.165Z,30.33
2017-07-21T16:40:23.877Z,29.77
2017-07-21T16:42:51.574Z,29.90
2017-07-21T16:45:19.207Z,29.97
2017-07-21T16:47:46.850Z,30.76
2017-07-21T16:50:14.442Z,30.17
2017-07-21T16:52:42.056Z,30.01
2017-07-21T16:55:09.675Z,30.08
2017-07-21T16:57:37.295Z,30.33
2017-07-21T17:00:04.890Z,31.11
2017-07-21T17:02:32.584Z,30.88
2017-07-21T17:05:00.186Z,32.99
2017-07-21T17:07:27.850Z,32.07
2017-07-21T17:09:55.524Z,32.63
2017-07-21T17:12:23.146Z,33.22
2017-07-21T17:14:50.765Z,32.99
2017-07-21T17:17:18.371Z,32.54
2017-07-21T17:19:46.001Z,32.64
2017-07-21T17:22:13.603Z,33.01
2017-07-21T17:24:41.257Z,32.84
2017-07-21T17:27:08.846Z,32.93
2017-07-21T17:29:36.494Z,33.25
2017-07-21T17:32:04.098Z,33.22
2017-07-21T17:34:31.916Z,32.93
2017-07-21T17:36:59.526Z,32.98
2017-07-21T17:39:27.176Z,33.06
2017-07-21T17:41:54.795Z,32.33
2017-07-21T17:44:22.418Z,32.84
2017-07-21T17:46:50.035Z,32.37
2017-07-21T17:49:17.667Z,32.32
2017-07-21T17:51:45.291Z,33.28
2017-07-21T17:54:12.939Z,33.32
2017-07-21T17:56:40.545Z,32.70
2017-07-21T17:59:08.230Z,32.30
2017-07-21T18:01:35.834Z,32.17
2017-07-21T18:04:03.459Z,32.73
2017-07-21T18:06:31.077Z,32.75
2017-07-21T18:08:58.747Z,32.95
2017-07-21T18:11:26.341Z,33.46
2017-07-21T18:13:54.000Z,33.90
2017-07-21T18:16:21.599Z,33.56
2017-07-21T18:18:49.246Z,34.40
2017-07-21T18:21:16.871Z,34.51
2017-07-21T18:23:44.510Z,36.48
2017-07-21T18:26:12.111Z,36.97
2017-07-21T18:28:39.725Z,36.51
2017-07-21T18:31:07.346Z,36.62
2017-07-21T18:33:34.949Z,36.01
2017-07-21T18:36:02.634Z,38.33
2017-07-21T18:38:30.231Z,37.16
2017-07-21T18:40:57.873Z,37.62
2017-07-21T18:43:25.477Z,37.13
2017-07-21T18:45:53.103Z,37.33
2017-07-21T18:48:20.702Z,37.46
2017-07-21T18:50:48.811Z,37.64
2017-07-21T18:53:16.627Z,38.07
2017-07-21T18:55:44.215Z,38.24
2017-07-21T18:58:11.851Z,38.64
2017-07-21T19:00:39.499Z,38.88
2017-07-21T19:03:07.140Z,38.18
2017-07-21T19:05:34.755Z,39.65
2017-07-21T19:08:02.454Z,38.94
2017-07-21T19:10:30.052Z,39.61
2017-07-21T19:12:57.786Z,40.05
2017-07-21T19:15:25.390Z,41.10
2017-07-21T19:17:53.244Z,41.18
2017-07-21T19:20:20.862Z,41.93
2017-07-21T19:22:48.467Z,41.99
2017-07-21T19:25:16.086Z,41.79
2017-07-21T19:27:43.730Z,42.10
2017-07-21T19:30:11.334Z,42.31
2017-07-21T19:59:17.181Z,45.89
2017-07-21T20:01:44.934Z,45.58
2017-07-21T20:04:12.530Z,45.73
2017-07-21T20:06:40.136Z,45.25
2017-07-21T20:09:07.786Z,46.46
2017-07-21T20:11:35.413Z,46.67
2017-07-21T20:14:03.002Z,46.84
2017-07-21T20:16:30.667Z,46.19
2017-07-21T20:18:58.287Z,46.14
2017-07-21T20:21:25.895Z,46.17
2017-07-21T20:23:53.530Z,45.12
2017-07-21T20:26:21.134Z,46.17
2017-07-21T20:28:48.959Z,46.67
2017-07-21T20:31:16.548Z,46.65
2017-07-21T20:33:44.431Z,45.95
2017-07-21T20:36:12.040Z,46.25
2017-07-21T20:38:39.680Z,46.94
2017-07-21T20:41:07.295Z,47.27
2017-07-21T20:43:34.939Z,47.29
2017-07-21T20:46:02.546Z,47.36
2017-07-21T20:48:30.191Z,47.36
2017-07-21T20:50:57.813Z,47.04
2017-07-21T20:53:25.513Z,47.46
2017-07-21T20:55:53.111Z,47.68
2017-07-21T20:58:20.757Z,48.60
2017-07-21T21:00:48.355Z,48.02
2017-07-21T21:03:16.070Z,48.24
2017-07-21T21:05:43.675Z,48.46
2017-07-21T21:08:11.303Z,49.30
2017-07-21T21:10:38.898Z,48.99
2017-07-21T21:13:06.621Z,49.27
2017-07-21T21:15:34.334Z,49.05
2017-07-21T21:18:02.027Z,49.40
2017-07-21T21:20:29.620Z,49.35
2017-07-21T21:22:57.302Z,49.46
2017-07-21T21:25:24.937Z,49.45
2017-07-21T21:27:52.587Z,49.31
2017-07-21T21:30:20.215Z,49.65
2017-07-21T21:32:47.862Z,49.41
2017-07-21T21:35:15.463Z,49.86
2017-07-21T21:37:43.100Z,50.02
2017-07-21T21:40:10.762Z,49.55
2017-07-21T21:42:38.432Z,50.05
2017-07-21T21:45:06.073Z,49.70
2017-07-21T21:47:33.741Z,49.92
2017-07-21T21:50:01.409Z,49.41
2017-07-21T21:52:29.003Z,49.95
2017-07-21T21:54:56.653Z,50.07
2017-07-21T21:57:24.302Z,50.05
2017-07-21T21:59:51.924Z,50.21
2017-07-21T22:02:19.544Z,50.42
2017-07-21T22:04:47.171Z,51.10
2017-07-21T22:07:14.780Z,51.28
2017-07-21T22:09:42.411Z,51.41
2017-07-21T22:12:10.025Z,51.83
2017-07-21T22:14:37.653Z,52.13
2017-07-21T22:17:05.263Z,52.27
2017-07-21T22:19:32.919Z,52.51
2017-07-21T22:22:00.510Z,52.56
2017-07-21T22:24:28.154Z,52.48
2017-07-21T22:26:55.783Z,52.33
2017-07-21T22:29:23.461Z,52.46
2017-07-21T22:31:51.075Z,52.94
2017-07-21T22:34:18.723Z,53.14
2017-07-21T22:36:46.342Z,53.27
2017-07-21T22:39:13.949Z,53.26
2017-07-21T22:41:41.593Z,53.34
2017-07-21T22:44:09.222Z,53.45
2017-07-21T22:46:36.853Z,53.49
2017-07-21T22:49:04.463Z,53.60
2017-07-21T22:51:32.098Z,53.59
2017-07-21T22:53:59.694Z,54.28
2017-07-21T22:56:27.326Z,54.65
2017-07-21T22:58:54.959Z,54.80
2017-07-21T23:01:22.612Z,54.28
2017-07-21T23:03:50.290Z,54.23
2017-07-21T23:06:17.921Z,54.29
2017-07-21T23:08:45.558Z,53.66
2017-07-21T23:11:13.244Z,54.11
2017-07-21T23:13:40.863Z,53.99
2017-07-21T23:16:08.458Z,53.87
2017-07-21T23:18:36.077Z,53.97
2017-07-21T23:21:03.794Z,54.40
2017-07-21T23:23:31.418Z,54.36
2017-07-21T23:25:59.009Z,54.23
2017-07-21T23:28:26.691Z,54.78
2017-07-21T23:30:54.291Z,54.92
2017-07-21T23:33:22.024Z,55.52
2017-07-21T23:35:49.611Z,55.78
2017-07-21T23:38:17.245Z,56.15
2017-07-21T23:40:44.843Z,56.04
2017-07-21T23:43:12.470Z,56.37
2017-07-21T23:45:40.086Z,56.31
2017-07-21T23:48:07.778Z,55.34
2017-07-21T23:50:35.371Z,55.67
2017-07-21T23:53:02.994Z,55.40
2017-07-21T23:55:30.638Z,55.05
2017-07-21T23:57:58.262Z,55.41
